createdAt,value
2019-04-16T00:01:07.391Z,3.47
2019-04-16T00:06:20.113Z,4.00
2019-04-16T00:11:47.589Z,3.77
2019-04-16T00:16:52.459Z,3.63
2019-04-16T00:22:14.387Z,4.27
2019-04-16T00:27:19.095Z,3.73
2019-04-16T00:32:30.005Z,3.77
2019-04-16T00:37:35.004Z,3.70
2019-04-16T00:42:40.000Z,4.03
2019-04-16T00:47:44.860Z,4.00
2019-04-16T00:52:49.991Z,4.20
2019-04-16T00:57:54.984Z,4.07
2019-04-16T01:02:59.896Z,3.80
2019-04-16T01:08:05.138Z,3.77
2019-04-16T01:13:10.001Z,3.43
2019-04-16T01:18:21.060Z,3.37
2019-04-16T01:23:25.952Z,3.13
2019-04-16T01:28:33.661Z,3.63
2019-04-16T01:33:56.039Z,4.20
2019-04-16T01:39:17.331Z,4.00
2019-04-16T01:44:20.364Z,3.67
2019-04-16T01:49:25.094Z,4.30
2019-04-16T01:54:30.105Z,4.17
2019-04-16T01:59:35.830Z,4.37
2019-04-16T02:04:41.310Z,4.33
2019-04-16T02:09:46.027Z,4.43
2019-04-16T02:14:51.951Z,4.97
2019-04-16T02:19:56.909Z,4.27
2019-04-16T02:25:01.724Z,4.27
2019-04-16T02:30:06.828Z,4.67
2019-04-16T02:35:11.882Z,5.37
2019-04-16T02:40:18.726Z,5.40
2019-04-16T02:45:28.805Z,5.10
2019-04-16T02:50:41.827Z,4.87
2019-04-16T02:55:59.723Z,4.87
2019-04-16T03:01:39.447Z,5.40
2019-04-16T03:06:46.207Z,5.67
2019-04-16T03:11:51.048Z,5.10
2019-04-16T03:17:13.936Z,5.53
2019-04-16T03:22:18.891Z,5.30
2019-04-16T03:27:24.211Z,5.43
2019-04-16T03:32:52.311Z,5.27
2019-04-16T03:37:57.702Z,6.03
2019-04-16T03:43:04.511Z,6.17
2019-04-16T03:48:09.479Z,5.67
2019-04-16T03:53:17.761Z,6.13
2019-04-16T03:58:20.584Z,6.30
2019-04-16T04:03:33.347Z,5.93
2019-04-16T04:08:47.899Z,5.77
2019-04-16T04:13:51.004Z,5.72
2019-04-16T04:18:55.992Z,5.90
2019-04-16T04:24:01.038Z,5.80
2019-04-16T04:29:06.431Z,6.40
2019-04-16T04:34:15.950Z,5.28
2019-04-16T04:39:17.690Z,6.03
2019-04-16T04:44:25.369Z,6.20
2019-04-16T04:49:40.257Z,5.97
2019-04-16T04:54:46.056Z,6.13
2019-04-16T04:59:50.964Z,5.70
2019-04-16T05:05:09.826Z,6.10
2019-04-16T05:10:14.716Z,6.63
2019-04-16T05:15:20.112Z,6.72
2019-04-16T05:20:38.949Z,7.03
2019-04-16T05:25:43.719Z,6.50
2019-04-16T05:30:51.766Z,6.70
2019-04-16T05:35:55.449Z,7.30
2019-04-16T05:41:12.588Z,6.93
2019-04-16T05:46:08.956Z,6.00
2019-04-16T05:51:13.860Z,6.58
2019-04-16T05:56:29.612Z,6.20
2019-04-16T06:01:42.405Z,7.47
2019-04-16T06:06:48.146Z,5.83
2019-04-16T06:11:52.989Z,6.60
2019-04-16T06:17:08.887Z,6.20
2019-04-16T06:22:36.109Z,6.87
2019-04-16T06:28:00.037Z,6.83
2019-04-16T06:33:08.491Z,6.53
2019-04-16T06:38:16.945Z,5.70
2019-04-16T06:43:30.058Z,6.65
2019-04-16T06:49:03.003Z,5.97
2019-04-16T06:54:31.890Z,6.63
2019-04-16T06:59:44.638Z,5.77
2019-04-16T07:05:23.203Z,6.17
2019-04-16T07:10:44.071Z,6.10
2019-04-16T07:15:38.313Z,6.40
2019-04-16T07:20:45.659Z,5.40
2019-04-16T07:25:56.657Z,6.93
2019-04-16T07:31:14.885Z,5.60
2019-04-16T07:36:28.911Z,6.30
2019-04-16T07:41:48.816Z,6.03
2019-04-16T07:47:20.802Z,6.13
2019-04-16T07:52:42.742Z,6.40
2019-04-16T07:57:47.608Z,6.00
2019-04-16T08:02:53.648Z,5.30
2019-04-16T08:08:00.055Z,5.90
2019-04-16T08:13:34.370Z,5.67
2019-04-16T08:18:49.961Z,5.77
2019-04-16T08:24:04.300Z,5.40
2019-04-16T08:29:09.712Z,5.28
2019-04-16T08:34:14.605Z,6.03
2019-04-16T08:39:19.684Z,5.05
2019-04-16T08:44:26.637Z,4.47
2019-04-16T08:49:39.375Z,5.30
2019-04-16T08:54:49.967Z,5.30
2019-04-16T08:59:52.293Z,5.03
2019-04-16T09:04:57.279Z,3.97
2019-04-16T09:10:16.277Z,4.80
2019-04-16T09:15:13.282Z,4.10
2019-04-16T09:20:23.278Z,4.17
2019-04-16T09:25:51.888Z,4.57
2019-04-16T09:31:18.826Z,4.90
2019-04-16T09:36:43.157Z,3.92
2019-04-16T09:41:49.836Z,4.50
2019-04-16T09:46:59.431Z,4.67
2019-04-16T09:52:03.917Z,4.65
2019-04-16T09:57:09.300Z,4.70
2019-04-16T10:02:17.419Z,5.77
2019-04-16T10:07:24.432Z,4.57
2019-04-16T10:12:29.519Z,4.93
2019-04-16T10:17:34.316Z,5.70
2019-04-16T10:22:39.318Z,4.45
2019-04-16T10:27:52.777Z,5.20
2019-04-16T10:32:57.664Z,4.45
2019-04-16T10:38:13.519Z,5.20
2019-04-16T10:43:48.694Z,4.90
2019-04-16T10:49:12.299Z,4.07
2019-04-16T10:54:23.084Z,4.87
2019-04-16T10:59:39.366Z,4.53
2019-04-16T11:05:02.254Z,4.25
2019-04-16T11:10:11.871Z,4.95
2019-04-16T11:15:21.196Z,4.28
2019-04-16T11:20:26.431Z,4.15
2019-04-16T11:25:31.492Z,5.13
2019-04-16T11:30:39.596Z,4.87
2019-04-16T11:35:53.169Z,5.00
2019-04-16T11:40:57.700Z,4.95
2019-04-16T11:46:03.066Z,5.30
2019-04-16T11:51:11.146Z,4.87
2019-04-16T11:56:23.343Z,4.20
2019-04-16T12:01:47.410Z,4.77
2019-04-16T12:07:15.323Z,5.03
2019-04-16T12:12:31.855Z,5.07
2019-04-16T12:17:54.752Z,5.30
2019-04-16T12:23:05.747Z,4.55
2019-04-16T12:28:32.406Z,5.10
2019-04-16T12:33:41.529Z,4.70
2019-04-16T12:39:11.269Z,4.90
2019-04-16T12:44:44.730Z,4.60
2019-04-16T12:49:48.478Z,3.43
2019-04-16T12:55:13.307Z,4.13
2019-04-16T13:00:55.744Z,3.65
2019-04-16T13:06:08.638Z,4.13
2019-04-16T13:11:20.451Z,3.85
2019-04-16T13:16:44.864Z,4.07
2019-04-16T13:21:59.705Z,4.37
2019-04-16T13:27:10.440Z,4.15
2019-04-16T13:32:18.977Z,4.00
2019-04-16T13:37:24.353Z,3.97
2019-04-16T13:42:29.729Z,4.57
2019-04-16T13:47:45.378Z,4.80
2019-04-16T13:52:54.941Z,4.80
2019-04-16T13:58:04.254Z,5.13
2019-04-16T14:03:12.911Z,5.63
2019-04-16T14:08:18.442Z,5.03
2019-04-16T14:13:23.628Z,4.30
2019-04-16T14:18:32.544Z,4.53
2019-04-16T14:23:36.485Z,4.37
2019-04-16T14:28:52.085Z,4.40
2019-04-16T14:33:54.938Z,4.10
2019-04-16T14:39:14.250Z,4.65
2019-04-16T14:44:19.887Z,4.40
2019-04-16T14:49:25.423Z,4.25
2019-04-16T14:54:54.463Z,4.50
2019-04-16T15:00:19.643Z,3.90
2019-04-16T15:05:35.324Z,4.47
2019-04-16T15:10:51.629Z,4.85
2019-04-16T15:16:11.013Z,3.93
2019-04-16T15:21:25.696Z,4.53
2019-04-16T15:26:46.175Z,4.60
2019-04-16T15:32:06.140Z,4.30
2019-04-16T15:37:27.600Z,4.10
2019-04-16T15:42:52.077Z,4.17
2019-04-16T15:48:18.089Z,4.50
2019-04-16T15:53:50.517Z,4.30
2019-04-16T15:59:13.801Z,4.60
2019-04-16T16:04:42.202Z,6.50
2019-04-16T16:10:00.322Z,5.17
2019-04-16T16:15:09.565Z,5.63
2019-04-16T16:20:15.511Z,5.10
2019-04-16T16:25:28.311Z,5.90
2019-04-16T16:30:37.355Z,6.17
2019-04-16T16:35:57.804Z,5.27
2019-04-16T16:40:55.389Z,6.93
2019-04-16T16:46:21.269Z,6.53
2019-04-16T16:51:26.826Z,6.90
2019-04-16T16:56:54.144Z,5.90
2019-04-16T17:02:13.761Z,7.50
2019-04-16T17:07:19.303Z,7.70
2019-04-16T17:12:24.474Z,5.43
2019-04-16T17:17:30.150Z,11.20
2019-04-16T17:22:40.724Z,7.97
2019-04-16T17:27:51.698Z,6.92
2019-04-16T17:32:56.423Z,7.33
2019-04-16T17:38:03.603Z,6.83
2019-04-16T17:43:14.122Z,7.47
2019-04-16T17:48:31.054Z,7.83
2019-04-16T17:53:45.452Z,7.67
2019-04-16T17:58:57.053Z,6.33
2019-04-16T18:04:13.514Z,8.90
2019-04-16T18:09:24.076Z,11.93
2019-04-16T18:14:37.832Z,11.45
2019-04-16T18:20:09.095Z,6.97
2019-04-16T18:25:25.024Z,8.08
2019-04-16T18:30:49.472Z,7.70
2019-04-16T18:36:23.867Z,6.28
2019-04-16T18:41:57.128Z,6.97
2019-04-16T18:47:17.917Z,6.50
2019-04-16T18:52:22.884Z,6.30
2019-04-16T18:57:28.001Z,6.47
2019-04-16T19:02:33.565Z,5.70
2019-04-16T19:07:51.041Z,6.10
2019-04-16T19:12:56.493Z,6.07
2019-04-16T19:18:17.263Z,5.57
2019-04-16T19:23:08.660Z,5.97
2019-04-16T19:28:13.766Z,6.03
2019-04-16T19:33:20.821Z,5.80
2019-04-16T19:38:25.791Z,6.12
2019-04-16T19:43:35.265Z,6.12
2019-04-16T19:48:47.474Z,5.50
2019-04-16T19:53:55.945Z,5.47
2019-04-16T19:59:02.323Z,5.37
2019-04-16T20:04:10.756Z,5.55
2019-04-16T20:09:14.695Z,5.27
2019-04-16T20:14:20.684Z,5.70
2019-04-16T20:19:26.182Z,5.50
2019-04-16T20:24:37.377Z,5.30
2019-04-16T20:29:42.731Z,6.33
2019-04-16T20:34:47.999Z,4.80
2019-04-16T20:39:53.590Z,5.57
2019-04-16T20:44:59.226Z,5.35
2019-04-16T20:50:06.200Z,5.53
2019-04-16T20:55:16.016Z,5.53
2019-04-16T21:00:34.351Z,5.30
2019-04-16T21:05:39.837Z,5.45
2019-04-16T21:10:45.386Z,5.83
2019-04-16T21:15:51.143Z,5.33
2019-04-16T21:20:56.768Z,5.43
2019-04-16T21:26:02.048Z,5.57
2019-04-16T21:31:13.000Z,5.07
2019-04-16T21:36:41.357Z,5.60
2019-04-16T21:41:46.490Z,5.77
2019-04-16T21:46:52.351Z,5.75
2019-04-16T21:52:08.025Z,5.37
2019-04-16T21:57:14.266Z,5.70
2019-04-16T22:02:37.888Z,5.87
2019-04-16T22:07:43.220Z,5.90
2019-04-16T22:12:48.932Z,6.40
2019-04-16T22:17:54.280Z,5.03
2019-04-16T22:22:59.395Z,5.65
2019-04-16T22:28:05.288Z,6.40
2019-04-16T22:33:10.052Z,6.33
2019-04-16T22:38:21.219Z,5.45
2019-04-16T22:43:53.386Z,6.20
2019-04-16T22:48:59.015Z,6.25
2019-04-16T22:54:05.482Z,5.42
2019-04-16T22:59:10.175Z,5.40
2019-04-16T23:04:26.152Z,5.67
2019-04-16T23:09:31.059Z,6.05
2019-04-16T23:14:36.029Z,5.60
2019-04-16T23:19:41.288Z,6.20
2019-04-16T23:24:46.339Z,5.47
2019-04-16T23:29:51.091Z,5.83
2019-04-16T23:34:56.330Z,5.60
2019-04-16T23:40:01.648Z,5.72
2019-04-16T23:45:24.412Z,5.87
2019-04-16T23:50:46.598Z,5.37
2019-04-16T23:56:13.965Z,4.93
